createdAt,value
2022-07-25T00:01:20.683Z,100580.95
2022-07-25T00:03:47.528Z,100574.46
2022-07-25T00:06:18.167Z,100572.77
2022-07-25T00:08:45.052Z,100569.66
2022-07-25T00:11:17.845Z,100565.94
2022-07-25T00:13:44.558Z,100566.55
2022-07-25T00:16:20.501Z,100560.64
2022-07-25T00:18:47.775Z,100556.73
2022-07-25T00:21:17.912Z,100559.39
2022-07-25T00:23:44.486Z,100556.65
2022-07-25T00:26:19.253Z,100550.93
2022-07-25T00:28:45.820Z,100555.10
2022-07-25T00:31:18.713Z,100547.15
2022-07-25T00:33:45.474Z,100547.55
2022-07-25T00:36:19.324Z,100544.02
2022-07-25T00:38:46.039Z,100539.63
2022-07-25T00:41:18.594Z,100537.60
2022-07-25T00:43:46.012Z,100541.09
2022-07-25T00:46:20.629Z,100540.38
2022-07-25T00:48:48.647Z,100535.17
2022-07-25T00:51:25.468Z,100530.03
2022-07-25T00:53:52.222Z,100527.98
2022-07-25T00:56:19.163Z,100527.40
2022-07-25T00:58:45.962Z,100526.63
2022-07-25T01:01:18.814Z,100523.59
2022-07-25T01:03:45.412Z,100524.13
2022-07-25T01:06:22.400Z,100522.30
2022-07-25T01:08:51.656Z,100519.92
2022-07-25T01:11:18.777Z,100519.55
2022-07-25T01:13:45.570Z,100517.36
2022-07-25T01:16:18.063Z,100519.10
2022-07-25T01:18:44.951Z,100519.65
2022-07-25T01:21:20.710Z,100518.64
2022-07-25T01:23:47.493Z,100516.58
2022-07-25T01:26:20.893Z,100516.23
2022-07-25T01:28:47.816Z,100514.81
2022-07-25T01:31:20.856Z,100514.21
2022-07-25T01:33:47.666Z,100513.17
2022-07-25T01:36:17.385Z,100514.14
2022-07-25T01:38:44.280Z,100512.17
2022-07-25T01:41:23.452Z,100508.69
2022-07-25T01:43:50.606Z,100506.68
2022-07-25T01:46:23.994Z,100503.39
2022-07-25T01:48:50.823Z,100506.52
2022-07-25T01:51:19.854Z,100499.52
2022-07-25T01:53:48.219Z,100499.95
2022-07-25T01:56:22.500Z,100499.06
2022-07-25T01:58:49.951Z,100495.52
2022-07-25T02:01:16.749Z,100489.60
2022-07-25T02:03:46.411Z,100485.67
2022-07-25T02:06:20.609Z,100482.64
2022-07-25T02:08:48.177Z,100481.38
2022-07-25T02:11:21.631Z,100476.70
2022-07-25T02:13:48.937Z,100472.30
2022-07-25T02:16:29.108Z,100463.89
2022-07-25T02:18:56.814Z,100461.88
2022-07-25T02:21:23.913Z,100458.74
2022-07-25T02:23:51.227Z,100454.11
2022-07-25T02:26:18.664Z,100452.35
2022-07-25T02:28:45.833Z,100453.73
2022-07-25T02:31:13.350Z,100453.11
2022-07-25T02:33:40.658Z,100447.92
2022-07-25T02:36:12.816Z,100446.80
2022-07-25T02:38:39.971Z,100446.67
2022-07-25T02:43:48.367Z,100436.84
2022-07-25T02:46:18.636Z,100436.61
2022-07-25T02:48:45.986Z,100439.56
2022-07-25T02:51:18.845Z,100432.68
2022-07-25T02:53:57.033Z,100432.09
2022-07-25T02:56:25.231Z,100432.85
2022-07-25T02:58:52.605Z,100429.06
2022-07-25T03:01:26.053Z,100424.90
2022-07-25T03:03:53.260Z,100422.68
2022-07-25T03:06:20.921Z,100419.33
2022-07-25T03:08:48.085Z,100418.63
2022-07-25T03:11:21.588Z,100412.94
2022-07-25T03:13:48.311Z,100411.88
2022-07-25T03:19:56.854Z,100410.05
2022-07-25T03:22:25.169Z,100415.02
2022-07-25T03:24:53.466Z,100413.83
2022-07-25T03:27:20.986Z,100410.42
2022-07-25T03:29:48.469Z,100407.05
2022-07-25T03:32:15.472Z,100403.99
2022-07-25T03:34:43.686Z,100401.20
2022-07-25T03:37:11.053Z,100396.15
2022-07-25T03:39:38.024Z,100394.25
2022-07-25T03:42:05.078Z,100395.02
2022-07-25T03:44:32.354Z,100396.73
2022-07-25T03:46:59.522Z,100399.77
2022-07-25T03:49:26.854Z,100396.58
2022-07-25T03:51:53.978Z,100395.02
2022-07-25T03:54:21.057Z,100394.88
2022-07-25T03:56:49.965Z,100390.59
2022-07-25T03:59:18.722Z,100386.38
2022-07-25T04:01:47.199Z,100384.59
2022-07-25T04:04:14.620Z,100386.28
2022-07-25T04:06:41.768Z,100388.37
2022-07-25T04:09:10.032Z,100385.00
2022-07-25T04:11:38.340Z,100379.89
2022-07-25T04:14:06.330Z,100372.33
2022-07-25T04:16:34.184Z,100367.52
2022-07-25T04:19:01.677Z,100362.57
2022-07-25T04:21:28.555Z,100364.25
2022-07-25T04:23:56.524Z,100362.54
2022-07-25T04:26:23.834Z,100356.55
2022-07-25T04:28:51.039Z,100357.35
2022-07-25T04:31:18.174Z,100354.04
2022-07-25T04:33:45.430Z,100351.75
2022-07-25T04:36:12.728Z,100351.97
2022-07-25T04:38:39.707Z,100349.17
2022-07-25T04:41:06.991Z,100344.77
2022-07-25T04:43:34.218Z,100340.17
2022-07-25T04:46:01.989Z,100326.81
2022-07-25T04:48:29.203Z,100325.75
2022-07-25T04:50:56.264Z,100322.58
2022-07-25T04:53:23.459Z,100317.48
2022-07-25T04:55:50.453Z,100311.34
2022-07-25T04:58:17.376Z,100309.73
2022-07-25T05:00:44.912Z,100306.41
2022-07-25T05:03:12.329Z,100303.90
2022-07-25T05:05:39.167Z,100300.60
2022-07-25T05:08:06.423Z,100298.82
2022-07-25T05:10:33.315Z,100295.02
2022-07-25T05:13:00.893Z,100290.33
2022-07-25T05:15:27.979Z,100290.56
2022-07-25T05:17:55.144Z,100289.30
2022-07-25T05:20:22.144Z,100283.15
2022-07-25T05:22:49.201Z,100284.58
2022-07-25T05:25:16.244Z,100277.66
2022-07-25T05:27:43.381Z,100273.99
2022-07-25T05:30:11.618Z,100275.23
2022-07-25T05:32:39.485Z,100273.98
2022-07-25T05:35:08.386Z,100274.38
2022-07-25T05:37:35.992Z,100268.95
2022-07-25T05:40:04.368Z,100270.05
2022-07-25T05:42:31.507Z,100266.92
2022-07-25T05:44:58.458Z,100266.05
2022-07-25T05:47:25.579Z,100267.73
2022-07-25T05:49:52.681Z,100260.51
2022-07-25T05:52:19.592Z,100255.38
2022-07-25T05:54:46.993Z,100253.20
2022-07-25T05:57:14.339Z,100251.45
2022-07-25T05:59:41.937Z,100246.52
2022-07-25T06:02:09.082Z,100249.40
2022-07-25T06:04:36.127Z,100245.77
2022-07-25T06:07:03.017Z,100245.21
2022-07-25T06:09:31.879Z,100241.96
2022-07-25T06:12:01.132Z,100241.04
2022-07-25T06:14:28.978Z,100237.50
2022-07-25T06:16:57.157Z,100232.81
2022-07-25T06:19:24.363Z,100229.77
2022-07-25T06:21:51.437Z,100227.06
2022-07-25T06:24:18.281Z,100225.47
2022-07-25T06:26:45.059Z,100215.98
2022-07-25T06:29:12.479Z,100214.77
2022-07-25T06:31:39.465Z,100215.90
2022-07-25T06:34:07.621Z,100213.68
2022-07-25T06:36:34.750Z,100217.45
2022-07-25T06:39:02.484Z,100215.54
2022-07-25T06:41:29.435Z,100218.14
2022-07-25T06:43:56.195Z,100209.92
2022-07-25T06:46:23.578Z,100203.17
2022-07-25T06:48:50.980Z,100199.26
2022-07-25T06:51:17.963Z,100188.38
2022-07-25T06:53:44.623Z,100185.68
2022-07-25T06:56:17.252Z,100183.11
2022-07-25T06:58:44.875Z,100183.57
2022-07-25T07:01:12.386Z,100179.13
2022-07-25T07:03:40.543Z,100179.58
2022-07-25T07:06:09.532Z,100185.33
2022-07-25T07:08:36.742Z,100184.16
2022-07-25T07:11:07.495Z,100175.54
2022-07-25T07:13:34.818Z,100179.80
2022-07-25T07:16:01.606Z,100171.27
2022-07-25T07:18:28.775Z,100172.98
2022-07-25T07:20:55.494Z,100169.16
2022-07-25T07:23:22.456Z,100164.93
2022-07-25T07:25:51.799Z,100168.63
2022-07-25T07:28:18.855Z,100166.05
2022-07-25T07:31:15.303Z,100165.17
2022-07-25T07:33:35.741Z,100156.77
2022-07-25T07:36:05.340Z,100155.33
2022-07-25T07:38:32.311Z,100156.62
2022-07-25T07:40:59.325Z,100149.16
2022-07-25T07:43:30.121Z,100148.17
2022-07-25T07:46:00.635Z,100147.23
2022-07-25T07:48:29.437Z,100142.45
2022-07-25T07:50:57.558Z,100132.75
2022-07-25T07:53:44.338Z,100129.88
2022-07-25T07:56:12.121Z,100133.25
2022-07-25T07:58:39.252Z,100132.11
2022-07-25T08:01:07.130Z,100127.57
2022-07-25T08:03:34.407Z,100124.02
2022-07-25T08:06:01.495Z,100122.14
2022-07-25T08:08:31.302Z,100115.13
2022-07-25T08:10:59.634Z,100117.59
2022-07-25T08:13:30.891Z,100113.05
2022-07-25T08:16:00.347Z,100119.65
2022-07-25T08:18:30.003Z,100114.62
2022-07-25T08:20:57.293Z,100115.89
2022-07-25T08:23:25.607Z,100113.81
2022-07-25T08:25:52.554Z,100110.83
2022-07-25T08:28:20.205Z,100110.73
2022-07-25T08:30:47.339Z,100106.20
2022-07-25T08:33:16.424Z,100102.88
2022-07-25T08:35:53.042Z,100105.08
2022-07-25T08:38:21.015Z,100102.95
2022-07-25T08:40:48.044Z,100102.41
2022-07-25T08:43:16.820Z,100098.84
2022-07-25T08:45:48.244Z,100100.35
2022-07-25T08:48:19.571Z,100098.02
2022-07-25T08:50:47.584Z,100095.08
2022-07-25T08:53:32.811Z,100090.96
2022-07-25T08:56:00.539Z,100094.30
2022-07-25T08:58:27.359Z,100090.98
2022-07-25T09:00:54.162Z,100075.02
2022-07-25T09:03:21.232Z,100073.77
2022-07-25T09:05:48.095Z,100072.42
2022-07-25T09:08:20.192Z,100071.46
2022-07-25T09:10:53.893Z,100058.66
2022-07-25T09:13:23.526Z,100059.81
2022-07-25T09:15:56.787Z,100054.59
2022-07-25T09:18:25.423Z,100058.45
2022-07-25T09:20:53.544Z,100055.41
2022-07-25T09:23:35.100Z,100052.63
2022-07-25T09:26:13.218Z,100048.75
2022-07-25T09:28:53.468Z,100051.59
2022-07-25T09:31:20.451Z,100054.13
2022-07-25T09:33:56.471Z,100054.15
2022-07-25T09:36:24.170Z,100049.16
2022-07-25T09:39:00.581Z,100045.95
2022-07-25T09:41:41.169Z,100052.70
2022-07-25T09:44:29.625Z,100054.20
2022-07-25T09:47:10.898Z,100038.48
2022-07-25T09:49:43.321Z,100040.20
2022-07-25T09:52:13.409Z,100033.09
2022-07-25T09:54:40.818Z,100040.64
2022-07-25T09:57:07.589Z,100034.00
2022-07-25T09:59:35.024Z,100033.40
2022-07-25T10:02:23.311Z,100026.42
2022-07-25T10:05:16.357Z,100020.59
2022-07-25T10:07:47.310Z,100020.33
2022-07-25T10:10:41.321Z,100023.39
2022-07-25T10:13:15.307Z,100017.05
2022-07-25T10:15:52.686Z,100014.86
2022-07-25T10:18:21.716Z,100011.40
2022-07-25T10:20:51.030Z,100010.19
2022-07-25T10:23:28.283Z,100010.77
2022-07-25T10:26:13.352Z,100004.98
2022-07-25T10:28:44.256Z,99998.48
2022-07-25T10:31:33.659Z,100004.27
2022-07-25T10:34:06.788Z,99992.95
2022-07-25T10:36:56.007Z,99991.52
2022-07-25T10:39:24.080Z,99986.25
2022-07-25T10:41:53.702Z,99982.06
2022-07-25T10:44:21.303Z,99989.83
2022-07-25T10:46:48.845Z,99980.45
2022-07-25T10:49:29.135Z,99979.30
2022-07-25T10:52:00.686Z,99974.32
2022-07-25T10:54:34.411Z,99970.92
2022-07-25T10:57:01.545Z,99979.35
2022-07-25T10:59:38.065Z,99977.77
2022-07-25T11:02:09.571Z,99974.14
2022-07-25T11:04:36.684Z,99972.62
2022-07-25T11:07:13.484Z,99974.31
2022-07-25T11:09:41.899Z,99968.69
2022-07-25T11:12:09.400Z,99962.29
2022-07-25T11:14:41.399Z,99955.63
2022-07-25T11:17:15.915Z,99955.55
2022-07-25T11:19:44.786Z,99952.71
2022-07-25T11:22:12.160Z,99959.73
2022-07-25T11:24:47.324Z,99956.31
2022-07-25T11:27:22.478Z,99947.21
2022-07-25T11:29:49.143Z,99947.34
2022-07-25T11:32:15.849Z,99939.41
2022-07-25T11:34:48.311Z,99931.27
2022-07-25T11:37:16.344Z,99932.09
2022-07-25T11:39:45.564Z,99935.00
2022-07-25T11:42:17.567Z,99939.86
2022-07-25T11:44:48.243Z,99935.86
2022-07-25T11:47:28.560Z,99936.98
2022-07-25T11:49:57.795Z,99931.95
2022-07-25T11:52:31.631Z,99932.64
2022-07-25T11:54:59.982Z,99923.04
2022-07-25T11:57:28.868Z,99924.95
2022-07-25T11:59:56.308Z,99924.38
2022-07-25T12:02:37.510Z,99917.27
2022-07-25T12:05:07.392Z,99925.69
2022-07-25T12:07:46.811Z,99924.03
2022-07-25T12:10:32.125Z,99922.10
2022-07-25T12:13:01.282Z,99930.72
2022-07-25T12:15:41.299Z,99928.23
2022-07-25T12:18:10.665Z,99927.38
2022-07-25T12:20:43.090Z,99920.00
2022-07-25T12:23:14.970Z,99924.95
2022-07-25T12:25:43.902Z,99920.81
2022-07-25T12:28:11.443Z,99915.70
2022-07-25T12:30:39.649Z,99916.45
2022-07-25T12:33:07.298Z,99916.36
2022-07-25T12:35:34.677Z,99917.84
2022-07-25T12:38:01.353Z,99933.73
2022-07-25T12:40:28.042Z,99932.12
2022-07-25T12:42:55.071Z,99935.06
2022-07-25T12:45:23.165Z,99934.14
2022-07-25T12:47:50.267Z,99931.42
2022-07-25T12:50:20.838Z,99930.52
2022-07-25T12:52:48.350Z,99926.86
2022-07-25T12:55:17.683Z,99931.91
2022-07-25T12:57:45.585Z,99932.43
2022-07-25T13:00:17.545Z,99931.19
2022-07-25T13:02:45.063Z,99943.30
2022-07-25T13:05:11.981Z,99941.64
2022-07-25T13:07:38.770Z,99947.21
2022-07-25T13:10:06.416Z,99943.91
2022-07-25T13:12:32.932Z,99954.03
2022-07-25T13:15:00.286Z,99943.15
2022-07-25T13:17:28.002Z,99940.66
2022-07-25T13:19:56.741Z,99938.75
2022-07-25T13:22:24.467Z,99938.86
2022-07-25T13:24:51.549Z,99937.80
2022-07-25T13:27:20.230Z,99930.66
2022-07-25T13:29:47.246Z,99930.64
2022-07-25T13:32:14.447Z,99930.05
2022-07-25T13:34:41.450Z,99935.08
2022-07-25T13:37:09.416Z,99944.63
2022-07-25T13:39:38.385Z,99936.98
2022-07-25T13:42:05.442Z,99941.41
2022-07-25T13:44:32.274Z,99933.77
2022-07-25T13:46:59.225Z,99928.45
2022-07-25T13:49:26.597Z,99930.35
2022-07-25T13:51:53.467Z,99929.92
2022-07-25T13:54:21.129Z,99922.39
2022-07-25T13:56:48.127Z,99931.54
2022-07-25T13:59:20.846Z,99927.25
2022-07-25T14:01:48.391Z,99927.85
2022-07-25T14:04:15.154Z,99925.82
2022-07-25T14:06:41.981Z,99928.88
2022-07-25T14:09:09.508Z,99927.08
2022-07-25T14:11:36.853Z,99926.11
2022-07-25T14:14:03.843Z,99925.67
2022-07-25T14:16:31.001Z,99915.07
2022-07-25T14:18:58.244Z,99914.55
2022-07-25T14:21:25.392Z,99905.09
2022-07-25T14:23:52.346Z,99905.63
2022-07-25T14:26:19.015Z,99894.48
2022-07-25T14:28:45.865Z,99892.04
2022-07-25T14:31:12.714Z,99900.20
2022-07-25T14:33:40.542Z,99886.30
2022-07-25T14:36:09.899Z,99892.23
2022-07-25T14:38:37.276Z,99883.58
2022-07-25T14:41:12.530Z,99886.39
2022-07-25T14:43:40.606Z,99880.01
2022-07-25T14:46:08.354Z,99879.07
2022-07-25T14:48:38.936Z,99880.48
2022-07-25T14:51:06.564Z,99880.80
2022-07-25T14:53:34.538Z,99879.96
2022-07-25T14:56:06.505Z,99884.62
2022-07-25T14:58:33.588Z,99887.14
2022-07-25T15:01:01.118Z,99886.23
2022-07-25T15:03:28.356Z,99880.02
2022-07-25T15:05:55.497Z,99878.90
2022-07-25T15:08:22.705Z,99877.28
2022-07-25T15:10:49.449Z,99881.70
2022-07-25T15:13:32.568Z,99872.23
2022-07-25T15:16:00.051Z,99872.23
2022-07-25T15:18:26.731Z,99871.33
2022-07-25T15:20:53.737Z,99875.60
2022-07-25T15:23:21.146Z,99870.09
2022-07-25T15:26:04.795Z,99871.09
2022-07-25T15:28:37.218Z,99868.59
2022-07-25T15:31:07.295Z,99871.41
2022-07-25T15:33:34.135Z,99878.85
2022-07-25T15:36:01.391Z,99883.12
2022-07-25T15:38:31.460Z,99888.16
2022-07-25T15:40:58.557Z,99880.58
2022-07-25T15:43:25.975Z,99881.33
2022-07-25T15:45:52.793Z,99889.33
2022-07-25T15:48:20.298Z,99883.09
2022-07-25T15:50:49.696Z,99889.96
2022-07-25T15:53:16.433Z,99895.73
2022-07-25T15:55:44.020Z,99885.25
2022-07-25T15:58:11.607Z,99877.62
2022-07-25T16:00:39.124Z,99881.27
2022-07-25T16:03:07.341Z,99880.34
2022-07-25T16:05:34.194Z,99901.96
2022-07-25T16:08:02.464Z,99916.45
2022-07-25T16:10:30.945Z,99923.95
2022-07-25T16:12:58.327Z,99932.45
2022-07-25T16:15:25.282Z,99942.83
2022-07-25T16:17:53.578Z,99954.43
2022-07-25T16:20:20.371Z,99942.16
2022-07-25T16:22:49.024Z,99946.86
2022-07-25T16:25:16.001Z,99945.51
2022-07-25T16:27:43.500Z,99960.21
2022-07-25T16:30:12.148Z,99958.32
2022-07-25T16:32:38.976Z,99976.56
2022-07-25T16:35:06.216Z,99965.42
2022-07-25T16:37:33.043Z,99977.39
2022-07-25T16:39:59.577Z,99969.31
2022-07-25T16:42:26.283Z,99975.48
2022-07-25T16:44:53.089Z,99980.05
2022-07-25T16:47:20.070Z,99983.61
2022-07-25T16:49:47.133Z,99986.61
2022-07-25T16:52:14.380Z,99983.86
2022-07-25T16:54:41.656Z,99993.73
2022-07-25T16:57:09.199Z,100000.94
2022-07-25T16:59:36.156Z,100012.35
2022-07-25T17:02:04.048Z,100012.02
2022-07-25T17:04:31.171Z,100028.55
2022-07-25T17:06:57.961Z,100016.79
2022-07-25T17:09:25.335Z,100008.27
2022-07-25T17:11:53.224Z,100032.08
2022-07-25T17:14:20.202Z,100017.38
2022-07-25T17:16:47.182Z,100012.95
2022-07-25T17:19:14.101Z,100024.56
2022-07-25T17:21:41.287Z,100018.88
2022-07-25T17:24:08.593Z,100022.46
2022-07-25T17:26:35.910Z,100017.41
2022-07-25T17:29:03.285Z,100020.45
2022-07-25T17:31:30.005Z,100021.92
2022-07-25T17:33:57.038Z,100023.70
2022-07-25T17:36:23.787Z,100026.09
2022-07-25T17:38:50.483Z,100034.56
2022-07-25T17:41:17.299Z,100032.77
2022-07-25T17:43:43.987Z,100037.70
2022-07-25T17:46:13.352Z,100041.45
2022-07-25T17:48:41.158Z,100059.20
2022-07-25T17:51:08.137Z,100050.81
2022-07-25T17:53:34.932Z,100052.41
2022-07-25T17:56:02.188Z,100060.06
2022-07-25T17:58:30.367Z,100050.02
2022-07-25T18:01:01.200Z,100054.36
2022-07-25T18:03:28.781Z,100054.32
2022-07-25T18:05:55.739Z,100063.71
2022-07-25T18:08:22.692Z,100056.61
2022-07-25T18:10:49.948Z,100056.23
2022-07-25T18:13:17.937Z,100063.45
2022-07-25T18:15:45.680Z,100065.65
2022-07-25T18:18:16.927Z,100070.77
2022-07-25T18:20:47.012Z,100081.97
2022-07-25T18:23:14.076Z,100087.79
2022-07-25T18:25:41.018Z,100097.80
2022-07-25T18:28:07.640Z,100099.65
2022-07-25T18:30:34.294Z,100106.19
2022-07-25T18:33:00.897Z,100109.55
2022-07-25T18:35:27.603Z,100117.17
2022-07-25T18:37:54.363Z,100113.44
2022-07-25T18:40:21.745Z,100115.97
2022-07-25T18:42:48.724Z,100119.22
2022-07-25T18:45:15.579Z,100126.71
2022-07-25T18:47:42.344Z,100131.80
2022-07-25T18:50:09.565Z,100139.07
2022-07-25T18:52:37.490Z,100147.83
2022-07-25T18:55:06.196Z,100151.29
2022-07-25T18:57:33.497Z,100168.64
2022-07-25T19:00:03.113Z,100163.35
2022-07-25T19:02:30.760Z,100166.17
2022-07-25T19:04:57.580Z,100170.13
2022-07-25T19:07:24.512Z,100177.85
2022-07-25T19:09:51.059Z,100181.89
2022-07-25T19:12:17.831Z,100192.36
2022-07-25T19:14:44.662Z,100196.38
2022-07-25T19:17:11.330Z,100198.83
2022-07-25T19:19:38.109Z,100212.41
2022-07-25T19:22:04.875Z,100208.19
2022-07-25T19:24:31.616Z,100218.80
2022-07-25T19:26:58.927Z,100222.69
2022-07-25T19:29:27.198Z,100234.39
2022-07-25T19:31:53.809Z,100235.17
2022-07-25T19:34:20.638Z,100238.44
2022-07-25T19:36:47.278Z,100244.29
2022-07-25T19:39:15.043Z,100242.39
2022-07-25T19:41:46.723Z,100248.42
2022-07-25T19:44:15.069Z,100247.39
2022-07-25T19:46:41.770Z,100253.30
2022-07-25T19:49:08.904Z,100251.09
2022-07-25T19:51:35.679Z,100249.28
2022-07-25T19:54:08.135Z,100251.13
2022-07-25T19:56:35.336Z,100251.14
2022-07-25T19:59:02.507Z,100250.70
2022-07-25T20:01:30.717Z,100256.59
2022-07-25T20:03:57.605Z,100258.05
2022-07-25T20:06:25.622Z,100260.85
2022-07-25T20:08:52.537Z,100265.80
2022-07-25T20:11:19.453Z,100264.03
2022-07-25T20:13:46.433Z,100265.89
2022-07-25T20:16:13.486Z,100273.41
2022-07-25T20:18:40.228Z,100272.68
2022-07-25T20:21:07.086Z,100281.59
2022-07-25T20:23:33.975Z,100280.55
2022-07-25T20:26:04.908Z,100284.71
2022-07-25T20:28:32.224Z,100287.85
2022-07-25T20:30:59.169Z,100284.20
2022-07-25T20:33:27.148Z,100282.05
2022-07-25T20:35:54.957Z,100284.77
2022-07-25T20:38:23.027Z,100287.14
2022-07-25T20:40:51.683Z,100295.93
2022-07-25T20:43:18.902Z,100296.27
2022-07-25T20:45:45.820Z,100290.30
2022-07-25T20:48:15.055Z,100297.36
2022-07-25T20:50:41.817Z,100300.95
2022-07-25T20:53:09.036Z,100305.61
2022-07-25T20:55:36.542Z,100309.54
2022-07-25T20:58:04.787Z,100307.67
2022-07-25T21:00:31.915Z,100309.55
2022-07-25T21:03:00.254Z,100306.41
2022-07-25T21:05:28.693Z,100306.77
2022-07-25T21:07:56.320Z,100306.40
2022-07-25T21:10:23.726Z,100307.25
2022-07-25T21:12:51.010Z,100306.02
2022-07-25T21:15:18.458Z,100305.63
2022-07-25T21:17:45.842Z,100310.27
2022-07-25T21:20:14.225Z,100310.55
2022-07-25T21:22:42.095Z,100311.39
2022-07-25T21:25:11.032Z,100306.86
2022-07-25T21:27:38.409Z,100311.74
2022-07-25T21:30:07.006Z,100312.23
2022-07-25T21:32:34.309Z,100312.62
2022-07-25T21:35:01.449Z,100315.12
2022-07-25T21:37:28.695Z,100311.42
2022-07-25T21:39:55.390Z,100315.72
2022-07-25T21:42:22.734Z,100321.14
2022-07-25T21:44:49.818Z,100322.13
2022-07-25T21:47:16.767Z,100323.00
2022-07-25T21:50:02.400Z,100322.81
2022-07-25T21:52:35.115Z,100327.54
2022-07-25T21:55:03.523Z,100333.80
2022-07-25T21:57:31.327Z,100333.81
2022-07-25T21:59:58.491Z,100334.73
2022-07-25T22:02:25.591Z,100337.48
2022-07-25T22:04:52.846Z,100340.10
2022-07-25T22:07:19.889Z,100340.96
2022-07-25T22:09:47.059Z,100342.85
2022-07-25T22:12:14.682Z,100344.83
2022-07-25T22:14:41.699Z,100344.88
2022-07-25T22:17:09.438Z,100345.49
2022-07-25T22:19:36.815Z,100344.13
2022-07-25T22:22:06.008Z,100345.70
2022-07-25T22:24:33.069Z,100351.41
2022-07-25T22:27:00.094Z,100354.59
2022-07-25T22:29:27.144Z,100359.36
2022-07-25T22:31:57.132Z,100363.33
2022-07-25T22:34:24.201Z,100366.77
2022-07-25T22:36:51.161Z,100364.80
2022-07-25T22:39:18.212Z,100361.16
2022-07-25T22:41:45.727Z,100368.64
2022-07-25T22:44:12.962Z,100370.40
2022-07-25T22:46:39.971Z,100375.94
2022-07-25T22:49:08.135Z,100381.63
2022-07-25T22:51:35.460Z,100383.96
2022-07-25T22:54:02.475Z,100386.90
2022-07-25T22:56:29.440Z,100392.63
2022-07-25T22:58:56.387Z,100388.22
2022-07-25T23:01:23.162Z,100383.80
2022-07-25T23:03:50.679Z,100386.02
2022-07-25T23:06:19.567Z,100386.48
2022-07-25T23:08:47.170Z,100389.25
2022-07-25T23:11:14.454Z,100387.94
2022-07-25T23:13:41.822Z,100389.52
2022-07-25T23:16:10.452Z,100397.08
2022-07-25T23:18:38.191Z,100396.00
2022-07-25T23:21:08.316Z,100394.15
2022-07-25T23:23:35.529Z,100391.54
2022-07-25T23:26:06.397Z,100394.27
2022-07-25T23:28:33.542Z,100395.61
2022-07-25T23:31:00.535Z,100393.48
2022-07-25T23:33:28.841Z,100394.94
2022-07-25T23:35:57.233Z,100390.65
2022-07-25T23:38:24.696Z,100387.02
2022-07-25T23:40:54.016Z,100387.66
2022-07-25T23:43:43.640Z,100387.39
2022-07-25T23:46:08.450Z,100391.85
2022-07-25T23:48:35.387Z,100389.98
2022-07-25T23:51:04.556Z,100392.58
2022-07-25T23:53:33.862Z,100393.92
2022-07-25T23:56:01.058Z,100389.30
2022-07-25T23:58:27.964Z,100392.17
